Terminal Aerodrome Forecast
Issued by NWS Mt. Holly, NJ

Home | Current Version | Previous Version | Text Only | Print | Product List | Glossary On
Versions: 1 2 3 4 5 6 7 8 9 10 11 12 13 14 15 16 17 18 19
000
FTUS41 KPHI 281739
TAFACY
TAF
KACY 281739Z 2818/2918 06010G20KT P6SM VCSH OVC020
      TEMPO 2818/2822 5SM -RADZ
     FM282200 07013G22KT 6SM -RADZ OVC007
     FM291500 08014G24KT P6SM VCSH OVC015=

USA.gov is the U.S. government's official web portal to all federal, state and local government web resources and services.